sensor_id;sensor_type;location;lat;lon;timestamp;pressure;altitude;pressure_sealevel;temperature;humidity
68807;BME280;55800;54.272;18.558;2023-05-10T00:02:01;101479.94;;;7.15;37.96
68807;BME280;55800;54.272;18.558;2023-05-10T00:04:30;101478.22;;;7.11;38.07
68807;BME280;55800;54.272;18.558;2023-05-10T00:07:00;101480.94;;;7.06;38.04
68807;BME280;55800;54.272;18.558;2023-05-10T00:09:29;101485.44;;;7.03;38.09
68807;BME280;55800;54.272;18.558;2023-05-10T00:11:57;101480.22;;;6.97;38.50
68807;BME280;55800;54.272;18.558;2023-05-10T00:14:27;101479.34;;;6.93;38.09
68807;BME280;55800;54.272;18.558;2023-05-10T00:16:57;101475.88;;;6.90;38.11
68807;BME280;55800;54.272;18.558;2023-05-10T00:19:26;101484.81;;;6.84;38.06
68807;BME280;55800;54.272;18.558;2023-05-10T00:21:55;101481.28;;;6.81;38.31
68807;BME280;55800;54.272;18.558;2023-05-10T00:24:25;101483.09;;;6.79;38.12
68807;BME280;55800;54.272;18.558;2023-05-10T00:26:53;101481.38;;;6.75;38.29
68807;BME280;55800;54.272;18.558;2023-05-10T00:29:23;101482.31;;;6.71;37.93
68807;BME280;55800;54.272;18.558;2023-05-10T00:31:51;101485.91;;;6.67;38.29
68807;BME280;55800;54.272;18.558;2023-05-10T00:34:22;101491.25;;;6.64;38.37
68807;BME280;55800;54.272;18.558;2023-05-10T00:36:52;101477.13;;;6.60;37.98
68807;BME280;55800;54.272;18.558;2023-05-10T00:39:21;101488.66;;;6.58;38.06
68807;BME280;55800;54.272;18.558;2023-05-10T00:41:50;101481.69;;;6.51;38.69
68807;BME280;55800;54.272;18.558;2023-05-10T00:44:19;101488.81;;;6.49;38.52
68807;BME280;55800;54.272;18.558;2023-05-10T00:46:48;101487.97;;;6.44;38.47
68807;BME280;55800;54.272;18.558;2023-05-10T00:49:18;101490.66;;;6.39;38.27
68807;BME280;55800;54.272;18.558;2023-05-10T00:51:48;101481.84;;;6.37;39.27
68807;BME280;55800;54.272;18.558;2023-05-10T00:54:17;101473.03;;;6.34;38.80
68807;BME280;55800;54.272;18.558;2023-05-10T00:56:46;101480.13;;;6.32;38.61
68807;BME280;55800;54.272;18.558;2023-05-10T00:59:17;101481.06;;;6.27;38.73
68807;BME280;55800;54.272;18.558;2023-05-10T01:01:46;101477.53;;;6.24;38.71
68807;BME280;55800;54.272;18.558;2023-05-10T01:04:15;101475.78;;;6.21;38.56
68807;BME280;55800;54.272;18.558;2023-05-10T01:06:44;101472.34;;;6.16;38.81
68807;BME280;55800;54.272;18.558;2023-05-10T01:09:15;101467.03;;;6.13;39.02
68807;BME280;55800;54.272;18.558;2023-05-10T01:11:44;101466.28;;;6.01;43.21
68807;BME280;55800;54.272;18.558;2023-05-10T01:14:13;101470.72;;;6.00;39.10
68807;BME280;55800;54.272;18.558;2023-05-10T01:16:43;101465.44;;;5.97;39.12
68807;BME280;55800;54.272;18.558;2023-05-10T01:19:15;101466.38;;;5.93;40.02
68807;BME280;55800;54.272;18.558;2023-05-10T01:21:48;101462.84;;;5.93;39.19
68807;BME280;55800;54.272;18.558;2023-05-10T01:24:31;101455.78;;;5.89;39.16
68807;BME280;55800;54.272;18.558;2023-05-10T01:27:13;101464.69;;;5.85;39.16
68807;BME280;55800;54.272;18.558;2023-05-10T01:32:45;101457.81;;;5.60;42.20
68807;BME280;55800;54.272;18.558;2023-05-10T01:35:19;101450.72;;;5.59;40.04
68807;BME280;55800;54.272;18.558;2023-05-10T01:37:50;101459.53;;;5.64;39.59
68807;BME280;55800;54.272;18.558;2023-05-10T01:40:23;101455.13;;;5.61;39.52
68807;BME280;55800;54.272;18.558;2023-05-10T01:42:59;101452.50;;;5.58;39.21
68807;BME280;55800;54.272;18.558;2023-05-10T01:45:31;101443.72;;;5.53;39.32
68807;BME280;55800;54.272;18.558;2023-05-10T01:48:05;101451.72;;;5.44;39.85
68807;BME280;55800;54.272;18.558;2023-05-10T01:50:35;101452.59;;;5.43;39.88
68807;BME280;55800;54.272;18.558;2023-05-10T01:53:06;101449.16;;;5.36;39.78
68807;BME280;55800;54.272;18.558;2023-05-10T01:55:36;101451.88;;;5.24;41.69
68807;BME280;55800;54.272;18.558;2023-05-10T01:58:09;101450.09;;;5.28;39.96
68807;BME280;55800;54.272;18.558;2023-05-10T02:00:40;101460.72;;;5.22;40.05
68807;BME280;55800;54.272;18.558;2023-05-10T02:03:11;101455.47;;;5.14;40.61
68807;BME280;55800;54.272;18.558;2023-05-10T02:05:41;101451.06;;;5.13;40.12
68807;BME280;55800;54.272;18.558;2023-05-10T02:08:13;101448.41;;;5.12;39.96
68807;BME280;55800;54.272;18.558;2023-05-10T02:10:42;101444.94;;;5.07;39.93
68807;BME280;55800;54.272;18.558;2023-05-10T02:13:11;101443.16;;;5.06;39.98
68807;BME280;55800;54.272;18.558;2023-05-10T02:15:42;101437.00;;;5.01;39.60
68807;BME280;55800;54.272;18.558;2023-05-10T02:18:13;101452.03;;;4.99;39.65
68807;BME280;55800;54.272;18.558;2023-05-10T02:20:43;101443.25;;;4.94;39.54
68807;BME280;55800;54.272;18.558;2023-05-10T02:23:15;101442.38;;;4.92;39.76
68807;BME280;55800;54.272;18.558;2023-05-10T02:25:46;101443.28;;;4.88;39.37
68807;BME280;55800;54.272;18.558;2023-05-10T02:28:16;101432.69;;;4.82;39.41
68807;BME280;55800;54.272;18.558;2023-05-10T02:33:50;101438.06;;;4.72;39.58
68807;BME280;55800;54.272;18.558;2023-05-10T02:36:20;101440.72;;;4.69;40.02
68807;BME280;55800;54.272;18.558;2023-05-10T02:38:49;101432.81;;;4.66;39.45
68807;BME280;55800;54.272;18.558;2023-05-10T02:41:20;101441.63;;;4.62;39.30
68807;BME280;55800;54.272;18.558;2023-05-10T02:43:50;101438.13;;;4.57;39.40
68807;BME280;55800;54.272;18.558;2023-05-10T02:46:19;101438.13;;;4.54;39.89
68807;BME280;55800;54.272;18.558;2023-05-10T02:48:49;101441.69;;;4.50;40.11
68807;BME280;55800;54.272;18.558;2023-05-10T02:51:19;101439.94;;;4.46;39.46
68807;BME280;55800;54.272;18.558;2023-05-10T02:53:49;101445.28;;;4.34;40.05
68807;BME280;55800;54.272;18.558;2023-05-10T02:56:23;101446.16;;;4.33;39.88
68807;BME280;55800;54.272;18.558;2023-05-10T02:58:53;101453.25;;;4.27;40.03
68807;BME280;55800;54.272;18.558;2023-05-10T03:01:25;101444.44;;;4.16;40.72
68807;BME280;55800;54.272;18.558;2023-05-10T03:03:55;101450.63;;;4.21;40.16
68807;BME280;55800;54.272;18.558;2023-05-10T03:06:25;101443.59;;;4.20;40.15
68807;BME280;55800;54.272;18.558;2023-05-10T03:08:54;101447.09;;;4.19;40.19
68807;BME280;55800;54.272;18.558;2023-05-10T03:11:28;101452.41;;;4.17;40.01
68807;BME280;55800;54.272;18.558;2023-05-10T03:14:07;101461.22;;;4.06;41.63
68807;BME280;55800;54.272;18.558;2023-05-10T03:16:41;101447.13;;;4.02;41.06
68807;BME280;55800;54.272;18.558;2023-05-10T03:19:15;101448.91;;;4.00;41.07
68807;BME280;55800;54.272;18.558;2023-05-10T03:21:47;101451.56;;;4.00;40.48
68807;BME280;55800;54.272;18.558;2023-05-10T03:24:20;101451.56;;;3.95;40.92
68807;BME280;55800;54.272;18.558;2023-05-10T03:26:49;101447.16;;;3.88;41.19
68807;BME280;55800;54.272;18.558;2023-05-10T03:29:20;101457.75;;;3.87;44.80
68807;BME280;55800;54.272;18.558;2023-05-10T03:31:49;101459.50;;;3.86;42.33
68807;BME280;55800;54.272;18.558;2023-05-10T03:34:24;101450.69;;;3.89;41.83
68807;BME280;55800;54.272;18.558;2023-05-10T03:36:53;101444.56;;;3.79;42.61
68807;BME280;55800;54.272;18.558;2023-05-10T03:39:24;101450.72;;;3.77;45.72
68807;BME280;55800;54.272;18.558;2023-05-10T03:41:57;101442.75;;;3.90;46.50
68807;BME280;55800;54.272;18.558;2023-05-10T03:44:26;101447.13;;;4.11;45.34
68807;BME280;55800;54.272;18.558;2023-05-10T03:46:56;101451.47;;;4.27;46.73
68807;BME280;55800;54.272;18.558;2023-05-10T03:49:26;101449.69;;;4.31;48.31
68807;BME280;55800;54.272;18.558;2023-05-10T03:51:56;101454.97;;;4.38;49.18
68807;BME280;55800;54.272;18.558;2023-05-10T03:54:24;101451.41;;;4.48;46.45
68807;BME280;55800;54.272;18.558;2023-05-10T03:56:53;101444.31;;;4.56;50.55
68807;BME280;55800;54.272;18.558;2023-05-10T03:59:23;101448.69;;;4.60;50.53
68807;BME280;55800;54.272;18.558;2023-05-10T04:01:52;101446.00;;;4.69;52.05
68807;BME280;55800;54.272;18.558;2023-05-10T04:04:21;101441.56;;;4.81;48.61
68807;BME280;55800;54.272;18.558;2023-05-10T04:06:52;101438.84;;;4.88;50.60
68807;BME280;55800;54.272;18.558;2023-05-10T04:09:22;101446.72;;;4.99;50.17
68807;BME280;55800;54.272;18.558;2023-05-10T04:11:52;101445.81;;;5.09;53.10
68807;BME280;55800;54.272;18.558;2023-05-10T04:14:21;101441.31;;;5.17;51.52
68807;BME280;55800;54.272;18.558;2023-05-10T04:16:50;101448.31;;;5.30;53.41
68807;BME280;55800;54.272;18.558;2023-05-10T04:19:19;101442.91;;;5.42;53.05
68807;BME280;55800;54.272;18.558;2023-05-10T04:21:48;101441.03;;;5.54;52.05
68807;BME280;55800;54.272;18.558;2023-05-10T04:24:18;101443.63;;;5.64;51.39
68807;BME280;55800;54.272;18.558;2023-05-10T04:26:47;101443.53;;;5.74;51.57
68807;BME280;55800;54.272;18.558;2023-05-10T04:29:16;101440.81;;;5.85;52.26
68807;BME280;55800;54.272;18.558;2023-05-10T04:31:45;101447.81;;;5.90;53.45
68807;BME280;55800;54.272;18.558;2023-05-10T04:34:14;101452.16;;;5.97;54.32
68807;BME280;55800;54.272;18.558;2023-05-10T04:36:43;101453.81;;;6.10;49.89
68807;BME280;55800;54.272;18.558;2023-05-10T04:39:12;101450.13;;;6.25;50.98
68807;BME280;55800;54.272;18.558;2023-05-10T04:41:42;101448.22;;;6.35;50.79
68807;BME280;55800;54.272;18.558;2023-05-10T04:44:11;101443.69;;;6.43;52.60
68807;BME280;55800;54.272;18.558;2023-05-10T04:46:41;101439.19;;;6.51;50.69
68807;BME280;55800;54.272;18.558;2023-05-10T04:49:10;101443.41;;;6.64;48.02
68807;BME280;55800;54.272;18.558;2023-05-10T04:51:39;101432.66;;;6.76;47.38
68807;BME280;55800;54.272;18.558;2023-05-10T04:54:08;101447.53;;;6.89;46.49
68807;BME280;55800;54.272;18.558;2023-05-10T04:56:38;101443.84;;;6.99;45.87
68807;BME280;55800;54.272;18.558;2023-05-10T04:59:08;101441.06;;;7.08;45.74
68807;BME280;55800;54.272;18.558;2023-05-10T05:01:37;101445.31;;;7.20;45.70
68807;BME280;55800;54.272;18.558;2023-05-10T05:04:06;101443.34;;;7.32;45.18
68807;BME280;55800;54.272;18.558;2023-05-10T05:06:35;101445.88;;;7.41;44.96
68807;BME280;55800;54.272;18.558;2023-05-10T05:09:04;101450.09;;;7.53;45.21
68807;BME280;55800;54.272;18.558;2023-05-10T05:11:33;101445.50;;;7.62;45.17
68807;BME280;55800;54.272;18.558;2023-05-10T05:14:02;101438.22;;;7.73;44.61
68807;BME280;55800;54.272;18.558;2023-05-10T05:16:32;101440.66;;;7.85;45.78
68807;BME280;55800;54.272;18.558;2023-05-10T05:19:02;101434.22;;;7.99;46.53
68807;BME280;55800;54.272;18.558;2023-05-10T05:21:32;101447.34;;;8.09;47.78
68807;BME280;55800;54.272;18.558;2023-05-10T05:24:01;101445.28;;;8.26;47.77
68807;BME280;55800;54.272;18.558;2023-05-10T05:26:30;101443.22;;;8.40;47.44
68807;BME280;55800;54.272;18.558;2023-05-10T05:28:59;101442.94;;;8.54;46.55
68807;BME280;55800;54.272;18.558;2023-05-10T05:31:29;101443.59;;;8.65;45.77
68807;BME280;55800;54.272;18.558;2023-05-10T05:33:59;101447.75;;;8.78;47.07
68807;BME280;55800;54.272;18.558;2023-05-10T05:36:28;101434.09;;;8.93;47.25
68807;BME280;55800;54.272;18.558;2023-05-10T05:38:58;101444.41;;;9.08;47.56
68807;BME280;55800;54.272;18.558;2023-05-10T05:41:27;101437.00;;;9.22;46.08
68807;BME280;55800;54.272;18.558;2023-05-10T05:43:56;101434.84;;;9.36;46.81
68807;BME280;55800;54.272;18.558;2023-05-10T05:46:25;101440.72;;;9.51;46.40
68807;BME280;55800;54.272;18.558;2023-05-10T05:48:54;101439.41;;;9.68;47.17
68807;BME280;55800;54.272;18.558;2023-05-10T05:51:24;101438.13;;;9.83;47.63
68807;BME280;55800;54.272;18.558;2023-05-10T05:53:53;101440.41;;;9.98;47.10
68807;BME280;55800;54.272;18.558;2023-05-10T05:56:22;101440.09;;;10.11;47.07
68807;BME280;55800;54.272;18.558;2023-05-10T05:58:52;101443.25;;;10.26;47.03
68807;BME280;55800;54.272;18.558;2023-05-10T06:01:21;101432.13;;;10.41;46.73
68807;BME280;55800;54.272;18.558;2023-05-10T06:03:51;101423.69;;;10.56;47.02
68807;BME280;55800;54.272;18.558;2023-05-10T06:06:20;101429.44;;;10.71;47.60
68807;BME280;55800;54.272;18.558;2023-05-10T06:08:51;101429.00;;;10.86;47.27
68807;BME280;55800;54.272;18.558;2023-05-10T06:11:20;101437.38;;;11.04;47.07
68807;BME280;55800;54.272;18.558;2023-05-10T06:13:49;101426.19;;;11.19;46.41
68807;BME280;55800;54.272;18.558;2023-05-10T06:16:19;101432.03;;;11.31;47.40
68807;BME280;55800;54.272;18.558;2023-05-10T06:18:48;101430.66;;;11.46;46.62
68807;BME280;55800;54.272;18.558;2023-05-10T06:21:17;101428.38;;;11.61;46.59
68807;BME280;55800;54.272;18.558;2023-05-10T06:23:46;101427.16;;;11.71;46.31
68807;BME280;55800;54.272;18.558;2023-05-10T06:26:16;101436.41;;;11.89;46.02
68807;BME280;55800;54.272;18.558;2023-05-10T06:28:45;101429.69;;;12.02;46.06
68807;BME280;55800;54.272;18.558;2023-05-10T06:31:14;101427.44;;;12.15;45.67
68807;BME280;55800;54.272;18.558;2023-05-10T06:33:43;101423.34;;;12.29;46.12
68807;BME280;55800;54.272;18.558;2023-05-10T06:36:12;101427.13;;;12.47;45.92
68807;BME280;55800;54.272;18.558;2023-05-10T06:38:42;101421.19;;;12.62;45.26
68807;BME280;55800;54.272;18.558;2023-05-10T06:41:12;101419.75;;;12.77;45.33
68807;BME280;55800;54.272;18.558;2023-05-10T06:43:42;101419.16;;;12.92;44.89
68807;BME280;55800;54.272;18.558;2023-05-10T06:46:11;101421.44;;;13.02;44.80
68807;BME280;55800;54.272;18.558;2023-05-10T06:48:40;101425.50;;;13.14;44.67
68807;BME280;55800;54.272;18.558;2023-05-10T06:51:09;101426.63;;;13.30;43.93
68807;BME280;55800;54.272;18.558;2023-05-10T06:53:38;101424.25;;;13.44;43.71
68807;BME280;55800;54.272;18.558;2023-05-10T06:56:07;101423.63;;;13.59;43.56
68807;BME280;55800;54.272;18.558;2023-05-10T06:58:36;101420.34;;;13.73;43.25
68807;BME280;55800;54.272;18.558;2023-05-10T07:01:07;101407.34;;;13.84;43.02
68807;BME280;55800;54.272;18.558;2023-05-10T07:03:36;101420.22;;;13.97;42.72
68807;BME280;55800;54.272;18.558;2023-05-10T07:06:05;101427.66;;;14.11;42.61
68807;BME280;55800;54.272;18.558;2023-05-10T07:08:45;101420.81;;;14.24;42.00
68807;BME280;55800;54.272;18.558;2023-05-10T07:11:14;101417.66;;;14.35;41.84
68807;BME280;55800;54.272;18.558;2023-05-10T07:13:42;101409.13;;;14.45;41.39
68807;BME280;55800;54.272;18.558;2023-05-10T07:16:15;101422.09;;;14.56;41.10
68807;BME280;55800;54.272;18.558;2023-05-10T07:18:44;101415.50;;;14.63;40.94
68807;BME280;55800;54.272;18.558;2023-05-10T07:21:13;101408.72;;;14.73;40.52
68807;BME280;55800;54.272;18.558;2023-05-10T07:23:42;101415.41;;;14.83;39.93
68807;BME280;55800;54.272;18.558;2023-05-10T07:26:12;101421.09;;;14.96;40.69
68807;BME280;55800;54.272;18.558;2023-05-10T07:28:42;101416.09;;;15.07;39.89
68807;BME280;55800;54.272;18.558;2023-05-10T07:31:11;101416.75;;;15.12;40.10
68807;BME280;55800;54.272;18.558;2023-05-10T07:33:41;101409.88;;;15.23;40.16
68807;BME280;55800;54.272;18.558;2023-05-10T07:36:11;101406.75;;;15.32;39.72
68807;BME280;55800;54.272;18.558;2023-05-10T07:38:40;101405.34;;;15.42;40.12
68807;BME280;55800;54.272;18.558;2023-05-10T07:41:09;101415.72;;;15.51;39.67
68807;BME280;55800;54.272;18.558;2023-05-10T07:43:38;101409.88;;;15.60;38.90
68807;BME280;55800;54.272;18.558;2023-05-10T07:46:07;101415.75;;;15.69;38.96
68807;BME280;55800;54.272;18.558;2023-05-10T07:48:37;101417.13;;;15.77;39.06
68807;BME280;55800;54.272;18.558;2023-05-10T07:51:08;101414.81;;;15.87;37.96
68807;BME280;55800;54.272;18.558;2023-05-10T07:53:37;101416.25;;;15.94;38.31
68807;BME280;55800;54.272;18.558;2023-05-10T07:56:22;101413.22;;;16.00;38.03
68807;BME280;55800;54.272;18.558;2023-05-10T07:58:52;101400.38;;;16.05;36.65
68807;BME280;55800;54.272;18.558;2023-05-10T08:01:21;101416.25;;;16.11;36.78
68807;BME280;55800;54.272;18.558;2023-05-10T08:03:51;101410.53;;;16.17;36.54
68807;BME280;55800;54.272;18.558;2023-05-10T08:06:23;101410.19;;;16.23;36.38
68807;BME280;55800;54.272;18.558;2023-05-10T08:08:54;101397.16;;;16.31;36.02
68807;BME280;55800;54.272;18.558;2023-05-10T08:11:23;101397.56;;;16.40;36.23
68807;BME280;55800;54.272;18.558;2023-05-10T08:13:52;101400.03;;;16.45;36.12
68807;BME280;55800;54.272;18.558;2023-05-10T08:16:21;101404.09;;;16.54;35.96
68807;BME280;55800;54.272;18.558;2023-05-10T08:18:50;101398.25;;;16.61;35.58
68807;BME280;55800;54.272;18.558;2023-05-10T08:21:19;101389.13;;;16.64;35.28
68807;BME280;55800;54.272;18.558;2023-05-10T08:23:50;101399.50;;;16.71;35.59
68807;BME280;55800;54.272;18.558;2023-05-10T08:26:19;101400.81;;;16.80;35.33
68807;BME280;55800;54.272;18.558;2023-05-10T08:28:48;101402.25;;;16.87;34.65
68807;BME280;55800;54.272;18.558;2023-05-10T08:31:18;101403.13;;;16.87;34.00
68807;BME280;55800;54.272;18.558;2023-05-10T08:33:47;101394.03;;;16.88;33.45
68807;BME280;55800;54.272;18.558;2023-05-10T08:36:16;101385.69;;;16.93;34.41
68807;BME280;55800;54.272;18.558;2023-05-10T08:38:50;101384.75;;;16.94;33.41
68807;BME280;55800;54.272;18.558;2023-05-10T08:41:20;101392.75;;;16.95;33.89
68807;BME280;55800;54.272;18.558;2023-05-10T08:43:49;101396.09;;;17.00;33.24
68807;BME280;55800;54.272;18.558;2023-05-10T08:46:19;101387.78;;;17.03;33.72
68807;BME280;55800;54.272;18.558;2023-05-10T08:48:48;101394.59;;;17.10;33.68
68807;BME280;55800;54.272;18.558;2023-05-10T08:51:19;101383.59;;;17.13;33.31
68807;BME280;55800;54.272;18.558;2023-05-10T08:53:48;101390.41;;;17.21;33.63
68807;BME280;55800;54.272;18.558;2023-05-10T08:56:19;101383.69;;;17.28;33.70
68807;BME280;55800;54.272;18.558;2023-05-10T08:58:48;101381.53;;;17.34;33.43
68807;BME280;55800;54.272;18.558;2023-05-10T09:01:18;101393.00;;;17.38;33.46
68807;BME280;55800;54.272;18.558;2023-05-10T09:03:48;101383.88;;;17.40;32.72
68807;BME280;55800;54.272;18.558;2023-05-10T09:06:18;101395.09;;;17.48;33.50
68807;BME280;55800;54.272;18.558;2023-05-10T09:08:47;101382.03;;;17.56;32.71
68807;BME280;55800;54.272;18.558;2023-05-10T09:11:16;101377.13;;;17.63;33.70
68807;BME280;55800;54.272;18.558;2023-05-10T09:13:47;101377.13;;;17.63;32.33
68807;BME280;55800;54.272;18.558;2023-05-10T09:16:17;101386.75;;;17.68;32.57
68807;BME280;55800;54.272;18.558;2023-05-10T09:18:48;101377.53;;;17.71;32.18
68807;BME280;55800;54.272;18.558;2023-05-10T09:21:19;101372.13;;;17.71;32.29
68807;BME280;55800;54.272;18.558;2023-05-10T09:23:48;101373.63;;;17.76;32.73
68807;BME280;55800;54.272;18.558;2023-05-10T09:26:21;101374.03;;;17.84;32.59
68807;BME280;55800;54.272;18.558;2023-05-10T09:28:52;101377.34;;;17.89;32.79
68807;BME280;55800;54.272;18.558;2023-05-10T09:31:21;101382.50;;;17.94;32.49
68807;BME280;55800;54.272;18.558;2023-05-10T09:33:51;101372.44;;;17.96;32.79
68807;BME280;55800;54.272;18.558;2023-05-10T09:36:21;101370.91;;;18.06;32.53
68807;BME280;55800;54.272;18.558;2023-05-10T09:38:51;101378.75;;;18.11;31.91
68807;BME280;55800;54.272;18.558;2023-05-10T09:41:21;101367.81;;;18.12;32.01
68807;BME280;55800;54.272;18.558;2023-05-10T09:43:55;101368.22;;;18.20;32.18
68807;BME280;55800;54.272;18.558;2023-05-10T09:46:24;101369.78;;;18.24;32.22
68807;BME280;55800;54.272;18.558;2023-05-10T09:48:53;101369.50;;;18.29;32.49
68807;BME280;55800;54.272;18.558;2023-05-10T09:51:23;101359.94;;;18.37;32.43
68807;BME280;55800;54.272;18.558;2023-05-10T09:54:08;101366.63;;;18.46;32.59
68807;BME280;55800;54.272;18.558;2023-05-10T09:56:37;101358.22;;;18.50;31.78
68807;BME280;55800;54.272;18.558;2023-05-10T09:59:10;101350.59;;;18.57;32.13
68807;BME280;55800;54.272;18.558;2023-05-10T10:01:40;101357.38;;;18.64;31.63
68807;BME280;55800;54.272;18.558;2023-05-10T10:04:09;101351.06;;;18.63;32.11
68807;BME280;55800;54.272;18.558;2023-05-10T10:06:39;101356.97;;;18.70;31.47
68807;BME280;55800;54.272;18.558;2023-05-10T10:09:08;101354.81;;;18.75;32.08
68807;BME280;55800;54.272;18.558;2023-05-10T10:11:38;101349.88;;;18.82;32.38
68807;BME280;55800;54.272;18.558;2023-05-10T10:14:10;101343.22;;;18.87;32.20
68807;BME280;55800;54.272;18.558;2023-05-10T10:16:40;101341.75;;;18.96;31.84
68807;BME280;55800;54.272;18.558;2023-05-10T10:19:29;101334.47;;;18.96;31.35
68807;BME280;55800;54.272;18.558;2023-05-10T10:21:59;101333.22;;;19.02;32.16
68807;BME280;55800;54.272;18.558;2023-05-10T10:24:28;101337.06;;;19.12;31.94
68807;BME280;55800;54.272;18.558;2023-05-10T10:26:59;101324.09;;;19.17;31.78
68807;BME280;55800;54.272;18.558;2023-05-10T10:29:34;101334.28;;;19.26;30.96
68807;BME280;55800;54.272;18.558;2023-05-10T10:32:08;101323.44;;;19.26;30.97
68807;BME280;55800;54.272;18.558;2023-05-10T10:34:40;101328.69;;;19.29;30.67
68807;BME280;55800;54.272;18.558;2023-05-10T10:37:09;101328.69;;;19.29;30.61
68807;BME280;55800;54.272;18.558;2023-05-10T10:39:38;101326.47;;;19.35;30.53
68807;BME280;55800;54.272;18.558;2023-05-10T10:42:08;101323.44;;;19.40;30.42
68807;BME280;55800;54.272;18.558;2023-05-10T10:44:38;101316.97;;;19.42;30.25
68807;BME280;55800;54.272;18.558;2023-05-10T10:47:22;101325.53;;;19.49;30.12
68807;BME280;55800;54.272;18.558;2023-05-10T10:50:02;101306.16;;;19.55;30.24
68807;BME280;55800;54.272;18.558;2023-05-10T10:52:33;101306.56;;;19.62;30.50
68807;BME280;55800;54.272;18.558;2023-05-10T10:55:04;101309.97;;;19.65;29.82
68807;BME280;55800;54.272;18.558;2023-05-10T10:57:42;101303.47;;;19.68;30.17
68807;BME280;55800;54.272;18.558;2023-05-10T11:00:20;101301.50;;;19.70;29.52
68807;BME280;55800;54.272;18.558;2023-05-10T11:02:50;101304.75;;;19.75;29.53
68807;BME280;55800;54.272;18.558;2023-05-10T11:05:23;101300.44;;;19.72;29.13
68807;BME280;55800;54.272;18.558;2023-05-10T11:07:53;101305.44;;;19.78;29.93
68807;BME280;55800;54.272;18.558;2023-05-10T11:10:22;101312.16;;;19.85;29.39
68807;BME280;55800;54.272;18.558;2023-05-10T11:12:52;101296.75;;;19.86;28.86
68807;BME280;55800;54.272;18.558;2023-05-10T11:15:31;101286.53;;;19.89;29.33
68807;BME280;55800;54.272;18.558;2023-05-10T11:18:15;101291.75;;;19.92;29.11
68807;BME280;55800;54.272;18.558;2023-05-10T11:20:49;101310.44;;;19.97;29.27
68807;BME280;55800;54.272;18.558;2023-05-10T11:23:19;101293.91;;;20.00;28.62
68807;BME280;55800;54.272;18.558;2023-05-10T11:25:49;101296.56;;;20.01;28.82
68807;BME280;55800;54.272;18.558;2023-05-10T11:28:18;101282.66;;;20.06;29.79
68807;BME280;55800;54.272;18.558;2023-05-10T11:30:49;101276.78;;;20.12;28.84
68807;BME280;55800;54.272;18.558;2023-05-10T11:33:19;101290.03;;;20.16;28.47
68807;BME280;55800;54.272;18.558;2023-05-10T11:35:48;101287.88;;;20.21;28.82
68807;BME280;55800;54.272;18.558;2023-05-10T11:38:17;101280.50;;;20.23;28.59
68807;BME280;55800;54.272;18.558;2023-05-10T11:40:46;101296.47;;;20.28;29.02
68807;BME280;55800;54.272;18.558;2023-05-10T11:43:15;101291.78;;;20.30;28.42
68807;BME280;55800;54.272;18.558;2023-05-10T11:45:44;101289.75;;;20.34;28.95
68807;BME280;55800;54.272;18.558;2023-05-10T11:48:15;101282.88;;;20.41;28.88
68807;BME280;55800;54.272;18.558;2023-05-10T11:50:49;101292.44;;;20.46;29.01
68807;BME280;55800;54.272;18.558;2023-05-10T11:53:19;101278.50;;;20.51;28.93
68807;BME280;55800;54.272;18.558;2023-05-10T11:55:50;101278.19;;;20.55;29.30
68807;BME280;55800;54.272;18.558;2023-05-10T11:58:19;101289.47;;;20.62;28.87
68807;BME280;55800;54.272;18.558;2023-05-10T12:00:50;101283.94;;;20.63;28.88
68807;BME280;55800;54.272;18.558;2023-05-10T12:03:21;101278.81;;;20.71;29.56
68807;BME280;55800;54.272;18.558;2023-05-10T12:05:50;101287.25;;;20.79;28.45
68807;BME280;55800;54.272;18.558;2023-05-10T12:08:20;101279.84;;;20.81;28.53
68807;BME280;55800;54.272;18.558;2023-05-10T12:10:49;101280.16;;;20.89;28.22
68807;BME280;55800;54.272;18.558;2023-05-10T12:13:19;101300.59;;;20.95;29.02
68807;BME280;55800;54.272;18.558;2023-05-10T12:15:49;101278.59;;;20.98;29.10
68807;BME280;55800;54.272;18.558;2023-05-10T12:18:22;101274.03;;;20.98;27.95
68807;BME280;55800;54.272;18.558;2023-05-10T12:20:52;101273.59;;;21.05;27.83
68807;BME280;55800;54.272;18.558;2023-05-10T12:23:22;101277.97;;;21.07;27.75
68807;BME280;55800;54.272;18.558;2023-05-10T12:25:51;101275.25;;;21.07;27.89
68807;BME280;55800;54.272;18.558;2023-05-10T12:28:22;101265.66;;;21.14;28.84
68807;BME280;55800;54.272;18.558;2023-05-10T12:30:52;101276.28;;;21.17;28.27
68807;BME280;55800;54.272;18.558;2023-05-10T12:33:22;101273.84;;;21.25;26.88
68807;BME280;55800;54.272;18.558;2023-05-10T12:35:51;101276.47;;;21.27;28.22
68807;BME280;55800;54.272;18.558;2023-05-10T12:38:29;101275.00;;;21.34;28.03
68807;BME280;55800;54.272;18.558;2023-05-10T12:40:58;101280.97;;;21.39;27.61
68807;BME280;55800;54.272;18.558;2023-05-10T12:43:28;101278.63;;;21.45;28.51
68807;BME280;55800;54.272;18.558;2023-05-10T12:45:57;101269.03;;;21.52;27.92
68807;BME280;55800;54.272;18.558;2023-05-10T12:48:26;101272.38;;;21.56;28.21
68807;BME280;55800;54.272;18.558;2023-05-10T12:50:56;101271.78;;;21.63;27.39
68807;BME280;55800;54.272;18.558;2023-05-10T12:53:25;101263.72;;;21.62;26.64
68807;BME280;55800;54.272;18.558;2023-05-10T12:55:55;101267.19;;;21.64;27.10
68807;BME280;55800;54.272;18.558;2023-05-10T12:58:24;101267.94;;;21.66;27.70
68807;BME280;55800;54.272;18.558;2023-05-10T13:01:02;101258.06;;;21.65;27.16
68807;BME280;55800;54.272;18.558;2023-05-10T13:03:50;101268.06;;;21.64;26.79
68807;BME280;55800;54.272;18.558;2023-05-10T13:06:19;101264.66;;;21.73;27.22
68807;BME280;55800;54.272;18.558;2023-05-10T13:08:48;101264.53;;;21.75;26.50